Time;durP1;ratioP1;P1;durP2;ratioP2;P2;SDS_P1;SDS_P2;PMS_P1;PMS_P2;Temp;Humidity;BMP_temperature;BMP_pressure;BME280_temperature;BME280_humidity;BME280_pressure;Samples;Min_cycle;Max_cycle;Signal;HPM_P1;HPM_P2
2021/12/11 00:01:04;;;;;;;19.40;16.40;;;;;;;;;;4974428;28;20144;-60
2021/12/11 00:03:36;;;;;;;17.67;15.88;;;;;;;;;;4991602;28;20051;-60
2021/12/11 00:06:11;;;;;;;18.75;16.38;;;;;;;;;;4994035;28;20068;-59
2021/12/11 00:08:38;;;;;;;;;;;;;;;;;;4993692;28;20050;-58
2021/12/11 00:11:15;;;;;;;17.50;15.82;;;;;;;;;;4993218;28;19953;-58
2021/12/11 00:13:44;;;;;;;22.70;17.42;;;;;;;;;;4994035;28;20050;-59
2021/12/11 00:16:18;;;;;;;18.70;16.45;;;;;;;;;;4993544;28;20509;-59
2021/12/11 00:18:51;;;;;;;22.17;17.83;;;;;;;;;;4989934;28;20493;-59
2021/12/11 00:21:18;;;;;;;19.80;17.75;;;;;;;;;;4988372;28;20049;-59
2021/12/11 00:24:10;;;;;;;18.35;16.35;;;;;;;;;;4989091;28;20493;-59
2021/12/11 00:26:43;;;;;;;18.92;16.40;;;;;;;;;;4983516;28;20055;-59
2021/12/11 00:29:12;;;;;;;18.27;16.30;;;;;;;;;;4985655;28;20048;-59
2021/12/11 00:31:44;;;;;;;20.95;18.67;;;;;;;;;;4991380;28;20035;-59
2021/12/11 00:34:14;;;;;;;24.27;17.00;;;;;;;;;;4988300;28;21006;-59
2021/12/11 00:36:53;;;;;;;27.20;18.67;;;;;;;;;;4988293;28;20042;-59
2021/12/11 00:39:21;;;;;;;22.13;17.63;;;;;;;;;;4985053;28;20378;-59
2021/12/11 00:41:55;;;;;;;22.10;18.20;;;;;;;;;;4991789;28;20053;-59
2021/12/11 00:44:33;;;;;;;26.07;19.70;;;;;;;;;;4989084;28;20604;-59
2021/12/11 00:47:19;;;;;;;24.52;18.98;;;;;;;;;;4988743;28;20049;-60
2021/12/11 00:50:09;;;;;;;20.50;18.23;;;;;;;;;;4989829;28;20054;-59
2021/12/11 00:52:56;;;;;;;20.23;17.25;;;;;;;;;;4991032;28;20053;-59
2021/12/11 00:55:26;;;;;;;18.20;16.30;;;;;;;;;;4985950;28;20049;-59
2021/12/11 00:58:18;;;;;;;19.00;16.23;;;;;;;;;;4987741;28;20043;-60
2021/12/11 01:00:59;;;;;;;18.50;16.55;;;;;;;;;;4988697;28;20051;-59
2021/12/11 01:03:41;;;;;;;20.55;16.42;;;;;;;;;;4990604;28;20060;-59
2021/12/11 01:06:40;;;;;;;22.65;18.10;;;;;;;;;;4987660;28;20916;-59
2021/12/11 01:09:15;;;;;;;24.30;17.05;;;;;;;;;;4977565;28;20058;-59
2021/12/11 01:11:48;;;;;;;21.50;17.52;;;;;;;;;;4988214;28;20082;-59
2021/12/11 01:14:30;;;;;;;16.52;14.75;;;;;;;;;;4988129;28;20054;-60
2021/12/11 01:17:32;;;;;;;17.05;14.60;;;;;;;;;;4988505;28;20109;-57
2021/12/11 01:20:01;;;;;;;17.30;13.80;;;;;;;;;;4982462;28;20053;-60
2021/12/11 01:22:34;;;;;;;19.42;15.23;;;;;;;;;;4994200;28;20057;-59
2021/12/11 01:25:25;;;;;;;16.35;12.93;;;;;;;;;;4994826;28;20042;-59
2021/12/11 01:27:59;;;;;;;18.17;15.38;;;;;;;;;;4994017;28;20532;-59
2021/12/11 01:30:38;;;;;;;17.20;15.43;;;;;;;;;;4996764;28;20042;-59
2021/12/11 01:33:07;;;;;;;15.60;13.70;;;;;;;;;;4996534;28;20046;-57
2021/12/11 01:35:34;;;;;;;17.83;14.88;;;;;;;;;;4996823;28;20394;-58
2021/12/11 01:38:05;;;;;;;19.05;15.25;;;;;;;;;;4996587;28;20050;-58
2021/12/11 01:40:32;;;;;;;18.40;16.17;;;;;;;;;;4996730;28;20046;-57
2021/12/11 01:43:02;;;;;;;19.13;14.88;;;;;;;;;;4996753;28;20050;-57
2021/12/11 01:45:30;;;;;;;20.20;16.08;;;;;;;;;;4997091;28;20117;-56
2021/12/11 01:47:57;;;;;;;17.63;15.75;;;;;;;;;;4996114;28;20050;-58
2021/12/11 01:50:41;;;;;;;18.90;16.20;;;;;;;;;;4996208;28;20397;-59
2021/12/11 01:53:16;;;;;;;17.55;15.65;;;;;;;;;;4995479;28;20108;-58
2021/12/11 01:55:46;;;;;;;19.17;17.23;;;;;;;;;;4996168;28;20501;-59
2021/12/11 01:58:14;;;;;;;18.00;15.90;;;;;;;;;;4995453;28;20045;-59
2021/12/11 02:00:47;;;;;;;23.27;16.58;;;;;;;;;;4996264;28;20056;-59
2021/12/11 02:03:22;;;;;;;16.75;15.05;;;;;;;;;;4996596;28;20060;-58
2021/12/11 02:05:49;;;;;;;20.60;17.17;;;;;;;;;;4996122;28;20046;-58
2021/12/11 02:08:20;;;;;;;20.15;18.00;;;;;;;;;;4996376;28;20042;-59
2021/12/11 02:11:09;;;;;;;18.33;16.17;;;;;;;;;;4996161;28;20058;-59
2021/12/11 02:13:46;;;;;;;17.70;15.63;;;;;;;;;;4989872;28;20054;-60
2021/12/11 02:16:20;;;;;;;21.33;17.85;;;;;;;;;;4996024;28;20046;-59
2021/12/11 02:18:50;;;;;;;18.67;16.05;;;;;;;;;;4996402;28;20417;-58
2021/12/11 02:21:22;;;;;;;20.83;16.95;;;;;;;;;;4996141;28;20034;-58
2021/12/11 02:24:05;;;;;;;21.00;17.38;;;;;;;;;;4996072;28;20054;-58
2021/12/11 02:26:35;;;;;;;19.38;17.30;;;;;;;;;;4996274;28;20050;-58
2021/12/11 02:29:38;;;;;;;20.33;18.23;;;;;;;;;;4995593;28;20046;-58
2021/12/11 02:32:14;;;;;;;24.52;16.40;;;;;;;;;;4978516;28;20050;-58
2021/12/11 02:34:52;;;;;;;18.95;15.68;;;;;;;;;;4995513;28;20046;-58
2021/12/11 02:37:39;;;;;;;18.58;15.57;;;;;;;;;;4995782;28;20050;-58
2021/12/11 02:40:20;;;;;;;16.40;14.65;;;;;;;;;;4995915;28;20548;-59
2021/12/11 02:42:56;;;;;;;16.55;14.75;;;;;;;;;;4995953;28;20390;-59
2021/12/11 02:45:31;;;;;;;19.25;15.80;;;;;;;;;;4995852;28;20073;-59
2021/12/11 02:48:19;;;;;;;16.83;15.05;;;;;;;;;;4995657;28;20054;-59
2021/12/11 02:51:15;;;;;;;17.77;14.60;;;;;;;;;;4995042;28;20046;-59
2021/12/11 02:53:46;;;;;;;19.40;15.27;;;;;;;;;;4995681;28;20120;-59
2021/12/11 02:56:22;;;;;;;15.68;14.02;;;;;;;;;;4995457;28;20121;-59
2021/12/11 02:58:53;;;;;;;16.92;13.48;;;;;;;;;;4995076;28;20069;-59
2021/12/11 03:01:28;;;;;;;13.77;12.30;;;;;;;;;;4995185;28;20054;-59
2021/12/11 03:04:12;;;;;;;13.98;11.55;;;;;;;;;;4995555;28;20053;-58
2021/12/11 03:06:43;;;;;;;12.57;10.65;;;;;;;;;;4978872;28;20125;-59
2021/12/11 03:09:12;;;;;;;13.07;11.48;;;;;;;;;;4995488;28;20061;-59
2021/12/11 03:11:40;;;;;;;11.73;9.93;;;;;;;;;;4994597;28;20050;-59
2021/12/11 03:14:12;;;;;;;10.25;9.15;;;;;;;;;;4995088;28;20038;-59
2021/12/11 03:16:40;;;;;;;10.07;9.07;;;;;;;;;;4994793;28;20050;-59
2021/12/11 03:19:11;;;;;;;9.73;8.73;;;;;;;;;;4995008;28;20175;-59
2021/12/11 03:21:38;;;;;;;12.50;9.45;;;;;;;;;;4995003;28;20408;-59
2021/12/11 03:24:06;;;;;;;10.45;8.60;;;;;;;;;;4994543;28;20093;-58
2021/12/11 03:26:35;;;;;;;8.88;7.97;;;;;;;;;;4994779;28;20039;-59
2021/12/11 03:29:02;;;;;;;9.13;7.63;;;;;;;;;;4987879;28;20057;-59
2021/12/11 03:31:30;;;;;;;9.18;8.18;;;;;;;;;;4989601;28;20101;-58
2021/12/11 03:33:59;;;;;;;9.23;8.20;;;;;;;;;;4994186;28;20094;-58
2021/12/11 03:36:27;;;;;;;9.20;7.30;;;;;;;;;;4994676;28;20046;-59
2021/12/11 03:38:57;;;;;;;9.65;7.45;;;;;;;;;;5008821;22;20046;-59
2021/12/11 03:41:25;;;;;;;9.85;7.97;;;;;;;;;;4995060;28;20042;-59
2021/12/11 03:43:53;;;;;;;6.68;6.03;;;;;;;;;;4994161;28;20444;-59
2021/12/11 03:46:21;;;;;;;8.88;7.68;;;;;;;;;;4994395;28;20057;-59
2021/12/11 03:48:54;;;;;;;7.20;6.35;;;;;;;;;;4992145;28;20048;-59
2021/12/11 03:51:26;;;;;;;8.25;7.07;;;;;;;;;;4993863;28;20046;-59
2021/12/11 03:53:53;;;;;;;8.10;7.13;;;;;;;;;;4994547;28;20046;-59
2021/12/11 03:56:20;;;;;;;6.85;6.20;;;;;;;;;;4993820;28;20248;-59
2021/12/11 03:58:51;;;;;;;7.00;6.32;;;;;;;;;;4994428;28;20061;-59
2021/12/11 04:01:26;;;;;;;8.65;7.15;;;;;;;;;;4993746;28;20563;-61
2021/12/11 04:04:07;;;;;;;8.77;6.38;;;;;;;;;;4993986;28;20077;-59
2021/12/11 04:06:35;;;;;;;7.05;5.95;;;;;;;;;;4993456;28;20101;-60
2021/12/11 04:09:05;;;;;;;7.00;6.22;;;;;;;;;;4994283;28;20050;-58
2021/12/11 04:11:34;;;;;;;6.15;4.88;;;;;;;;;;4993891;28;20046;-59
2021/12/11 04:14:09;;;;;;;7.80;6.45;;;;;;;;;;4993741;28;20101;-59
2021/12/11 04:16:36;;;;;;;6.53;5.45;;;;;;;;;;4993341;28;20047;-59
2021/12/11 04:19:07;;;;;;;5.78;5.20;;;;;;;;;;4993973;28;20046;-58
2021/12/11 04:21:34;;;;;;;6.35;5.20;;;;;;;;;;4993909;28;20039;-58
2021/12/11 04:24:03;;;;;;;6.50;5.63;;;;;;;;;;4993466;28;20054;-58
2021/12/11 04:26:30;;;;;;;5.65;5.13;;;;;;;;;;4993579;28;20371;-58
2021/12/11 04:28:57;;;;;;;7.55;5.18;;;;;;;;;;4993754;28;20054;-57
2021/12/11 04:31:27;;;;;;;6.25;5.65;;;;;;;;;;4993576;28;20054;-59
2021/12/11 04:33:58;;;;;;;5.10;4.60;;;;;;;;;;4993132;28;20078;-59
2021/12/11 04:36:30;;;;;;;6.70;5.60;;;;;;;;;;4993737;28;20490;-59
2021/12/11 04:38:58;;;;;;;6.72;5.78;;;;;;;;;;4986584;28;20527;-58
2021/12/11 04:41:33;;;;;;;7.93;5.03;;;;;;;;;;4990872;28;20042;-58
2021/12/11 04:44:03;;;;;;;6.45;5.38;;;;;;;;;;4993625;28;20121;-61
2021/12/11 04:46:30;;;;;;;5.38;4.72;;;;;;;;;;5003613;28;20107;-61
2021/12/11 04:49:47;;;;;;;6.15;5.55;;;;;;;;;;4993977;28;20049;-60
2021/12/11 04:52:00;;;;;;;5.43;4.93;;;;;;;;;;4987828;28;20043;-61
2021/12/11 05:13:18;;;;;;;5.20;4.15;;;;;;;;;;5012823;28;20053;-61
2021/12/11 05:15:48;;;;;;;5.82;4.82;;;;;;;;;;5012546;28;20097;-59
2021/12/11 05:18:21;;;;;;;4.65;4.13;;;;;;;;;;5012453;28;20072;-59
2021/12/11 05:20:53;;;;;;;4.88;4.40;;;;;;;;;;5007487;28;20037;-58
2021/12/11 05:23:20;;;;;;;5.82;4.50;;;;;;;;;;5012051;28;20042;-58
2021/12/11 05:25:48;;;;;;;5.20;4.70;;;;;;;;;;4973673;28;20495;-59
2021/12/11 05:28:15;;;;;;;5.45;4.57;;;;;;;;;;4983109;28;20097;-59
2021/12/11 05:30:46;;;;;;;4.70;4.30;;;;;;;;;;4993141;28;20042;-59
2021/12/11 05:33:15;;;;;;;4.80;4.30;;;;;;;;;;4992724;28;20047;-58
2021/12/11 05:35:42;;;;;;;5.47;4.97;;;;;;;;;;4993134;28;20057;-59
2021/12/11 05:38:10;;;;;;;4.38;3.92;;;;;;;;;;4992730;28;20050;-59
2021/12/11 05:40:40;;;;;;;4.78;4.05;;;;;;;;;;4992951;28;20046;-59
2021/12/11 05:43:09;;;;;;;6.10;4.32;;;;;;;;;;5001195;28;20046;-59
2021/12/11 05:45:36;;;;;;;5.10;4.65;;;;;;;;;;4995047;28;20046;-59
2021/12/11 05:48:04;;;;;;;6.38;4.78;;;;;;;;;;4992793;28;20085;-58
2021/12/11 05:50:38;;;;;;;5.03;4.50;;;;;;;;;;4992580;28;20489;-58
2021/12/11 05:53:05;;;;;;;5.32;4.82;;;;;;;;;;4993160;28;20493;-58
2021/12/11 05:55:33;;;;;;;5.32;4.82;;;;;;;;;;4992575;28;20046;-59
2021/12/11 05:58:09;;;;;;;6.00;5.43;;;;;;;;;;4992744;28;20108;-59
2021/12/11 06:00:40;;;;;;;6.47;5.88;;;;;;;;;;4992454;28;20042;-60
2021/12/11 06:03:08;;;;;;;7.05;5.13;;;;;;;;;;4992771;28;20486;-60
2021/12/11 06:05:35;;;;;;;7.57;6.82;;;;;;;;;;4992889;28;20035;-60
2021/12/11 06:08:04;;;;;;;6.78;5.97;;;;;;;;;;4996029;28;20093;-58
2021/12/11 06:10:31;;;;;;;8.95;6.72;;;;;;;;;;4996425;28;20452;-59
2021/12/11 06:13:00;;;;;;;7.32;5.80;;;;;;;;;;4995858;28;20508;-58
2021/12/11 06:15:27;;;;;;;7.50;5.13;;;;;;;;;;4996023;28;20050;-60
2021/12/11 06:17:55;;;;;;;4.72;4.28;;;;;;;;;;4995839;28;20490;-59
2021/12/11 06:20:25;;;;;;;5.15;4.68;;;;;;;;;;4995943;28;20054;-59
2021/12/11 06:22:53;;;;;;;4.35;3.92;;;;;;;;;;4995562;28;20097;-59
2021/12/11 06:25:30;;;;;;;4.35;4.00;;;;;;;;;;4995749;28;20050;-58
2021/12/11 06:27:57;;;;;;;3.60;3.30;;;;;;;;;;4998596;28;20046;-59
2021/12/11 06:30:26;;;;;;;4.03;3.72;;;;;;;;;;4996047;28;20100;-59
2021/12/11 06:32:55;;;;;;;3.83;3.53;;;;;;;;;;4995400;28;20034;-59
2021/12/11 06:35:40;;;;;;;3.38;3.08;;;;;;;;;;4996055;28;20043;-59
2021/12/11 06:38:10;;;;;;;4.60;3.20;;;;;;;;;;4994963;28;20046;-59
2021/12/11 06:40:37;;;;;;;3.20;2.90;;;;;;;;;;4981348;28;20042;-59
2021/12/11 06:43:04;;;;;;;5.47;4.97;;;;;;;;;;4995313;28;20043;-60
2021/12/11 06:45:31;;;;;;;3.60;3.30;;;;;;;;;;4994776;28;20042;-59
2021/12/11 06:47:58;;;;;;;3.33;3.03;;;;;;;;;;4995378;28;20046;-60
2021/12/11 06:50:25;;;;;;;2.72;2.53;;;;;;;;;;4993894;28;20073;-60
2021/12/11 06:52:53;;;;;;;2.95;2.75;;;;;;;;;;4997340;28;20497;-59
2021/12/11 06:55:21;;;;;;;3.67;3.20;;;;;;;;;;4994701;28;20116;-59
2021/12/11 06:57:51;;;;;;;5.60;4.13;;;;;;;;;;4994995;28;20042;-60
2021/12/11 07:00:19;;;;;;;3.63;3.33;;;;;;;;;;4992450;28;20043;-59
2021/12/11 07:02:46;;;;;;;3.17;2.88;;;;;;;;;;4997043;28;20038;-59
2021/12/11 07:05:14;;;;;;;3.03;2.70;;;;;;;;;;4994385;28;20042;-60
2021/12/11 07:07:42;;;;;;;2.90;2.70;;;;;;;;;;4994660;28;20551;-59
2021/12/11 07:10:13;;;;;;;2.72;2.53;;;;;;;;;;4994976;28;20088;-59
2021/12/11 07:12:41;;;;;;;3.00;2.72;;;;;;;;;;4992488;28;20504;-59
2021/12/11 07:15:10;;;;;;;2.85;2.63;;;;;;;;;;4997279;28;20038;-60
2021/12/11 07:17:38;;;;;;;3.63;3.35;;;;;;;;;;4994123;28;20050;-59
2021/12/11 07:20:08;;;;;;;2.85;2.65;;;;;;;;;;4994272;28;20042;-59
2021/12/11 07:22:38;;;;;;;2.42;2.33;;;;;;;;;;4994469;28;20050;-59
2021/12/11 07:25:18;;;;;;;2.90;2.50;;;;;;;;;;4996995;28;20045;-59
2021/12/11 07:27:46;;;;;;;2.50;2.30;;;;;;;;;;4994089;28;20042;-59
2021/12/11 07:30:14;;;;;;;5.15;3.55;;;;;;;;;;4994212;28;20092;-59
2021/12/11 07:32:41;;;;;;;3.00;2.80;;;;;;;;;;4993636;28;20042;-59
2021/12/11 07:35:09;;;;;;;2.88;2.67;;;;;;;;;;4994060;28;20536;-59
2021/12/11 07:37:36;;;;;;;2.60;2.40;;;;;;;;;;4993850;28;20113;-59
2021/12/11 07:40:08;;;;;;;2.95;2.45;;;;;;;;;;4993654;28;20493;-61
2021/12/11 07:42:36;;;;;;;4.72;3.65;;;;;;;;;;4993724;28;20038;-59
2021/12/11 07:45:03;;;;;;;3.97;2.40;;;;;;;;;;4993427;28;20046;-59
2021/12/11 07:47:31;;;;;;;2.45;2.25;;;;;;;;;;4993171;28;20387;-59
2021/12/11 07:49:58;;;;;;;2.50;2.33;;;;;;;;;;4988710;28;20096;-59
2021/12/11 07:52:25;;;;;;;2.42;2.22;;;;;;;;;;4986734;28;20050;-60
2021/12/11 07:54:52;;;;;;;3.40;3.10;;;;;;;;;;4989362;28;20061;-59
2021/12/11 07:57:19;;;;;;;2.80;2.55;;;;;;;;;;4988804;28;20043;-60
2021/12/11 07:59:46;;;;;;;2.65;2.45;;;;;;;;;;4989876;28;20042;-59
2021/12/11 08:02:13;;;;;;;2.50;2.30;;;;;;;;;;4989775;28;20089;-60
2021/12/11 08:04:40;;;;;;;3.38;3.08;;;;;;;;;;4988832;28;20046;-60
2021/12/11 08:07:07;;;;;;;3.53;2.30;;;;;;;;;;4990054;28;20509;-59
2021/12/11 08:09:35;;;;;;;2.63;2.30;;;;;;;;;;4993246;28;20455;-60
2021/12/11 08:12:02;;;;;;;2.17;2.08;;;;;;;;;;4986977;28;20038;-59
2021/12/11 08:14:30;;;;;;;2.97;2.50;;;;;;;;;;4981467;28;20489;-60
2021/12/11 08:16:58;;;;;;;2.45;2.25;;;;;;;;;;4980813;28;20098;-55
2021/12/11 08:19:28;;;;;;;2.60;2.40;;;;;;;;;;4985510;28;20043;-55
2021/12/11 08:21:57;;;;;;;2.42;2.22;;;;;;;;;;4989916;28;20065;-56
2021/12/11 08:24:27;;;;;;;2.30;2.10;;;;;;;;;;4981409;28;20049;-57
2021/12/11 08:26:57;;;;;;;3.65;2.97;;;;;;;;;;4991793;28;20038;-57
2021/12/11 08:29:24;;;;;;;4.70;3.88;;;;;;;;;;4987908;28;20046;-58
2021/12/11 08:31:53;;;;;;;4.60;4.15;;;;;;;;;;4989815;28;20054;-57
2021/12/11 08:34:21;;;;;;;4.97;3.92;;;;;;;;;;4987979;28;20511;-58
2021/12/11 08:36:48;;;;;;;4.95;3.60;;;;;;;;;;4991611;28;20045;-59
2021/12/11 08:39:16;;;;;;;5.18;3.80;;;;;;;;;;4991216;28;20042;-58
2021/12/11 08:41:45;;;;;;;4.45;3.53;;;;;;;;;;4988943;28;20511;-58
2021/12/11 08:44:14;;;;;;;3.72;3.40;;;;;;;;;;4989011;28;20042;-58
2021/12/11 08:46:48;;;;;;;6.25;4.43;;;;;;;;;;4977097;28;20069;-60
2021/12/11 08:49:19;;;;;;;4.20;3.85;;;;;;;;;;4987112;28;20126;-58
2021/12/11 08:52:02;;;;;;;3.38;3.08;;;;;;;;;;4984677;28;20053;-57
2021/12/11 08:54:30;;;;;;;4.50;3.03;;;;;;;;;;4985998;28;20060;-58
2021/12/11 08:57:00;;;;;;;4.95;3.50;;;;;;;;;;4990423;28;20054;-57
2021/12/11 08:59:30;;;;;;;3.75;3.45;;;;;;;;;;4982918;28;20046;-57
2021/12/11 09:02:13;;;;;;;3.80;3.00;;;;;;;;;;4980663;28;20046;-55
2021/12/11 09:05:04;;;;;;;3.40;3.10;;;;;;;;;;4987198;28;20132;-57
2021/12/11 09:07:45;;;;;;;2.85;2.50;;;;;;;;;;4977862;28;20508;-56
2021/12/11 09:10:40;;;;;;;2.28;2.08;;;;;;;;;;4973570;28;20043;-55
2021/12/11 09:13:15;;;;;;;4.32;3.17;;;;;;;;;;4987503;28;20157;-59
2021/12/11 09:15:58;;;;;;;5.85;4.28;;;;;;;;;;4990068;28;20038;-59
2021/12/11 09:18:35;;;;;;;3.22;2.60;;;;;;;;;;4988090;28;20568;-58
2021/12/11 09:21:04;;;;;;;2.30;2.10;;;;;;;;;;4989851;28;20508;-59
2021/12/11 09:23:42;;;;;;;4.03;2.58;;;;;;;;;;4982164;28;20797;-59
2021/12/11 09:26:23;;;;;;;2.30;2.10;;;;;;;;;;4983442;28;20129;-60
2021/12/11 09:28:55;;;;;;;2.10;2.00;;;;;;;;;;4988622;28;20047;-59
2021/12/11 09:31:28;;;;;;;2.10;2.00;;;;;;;;;;4992505;28;20057;-67
2021/12/11 09:34:07;;;;;;;2.55;2.00;;;;;;;;;;4988405;28;20046;-59
2021/12/11 09:36:38;;;;;;;2.67;2.20;;;;;;;;;;4987554;28;20588;-60
2021/12/11 09:39:12;;;;;;;2.00;1.90;;;;;;;;;;4988165;28;20053;-60
2021/12/11 09:41:39;;;;;;;3.88;3.58;;;;;;;;;;4981456;28;20062;-59
2021/12/11 09:44:27;;;;;;;6.63;2.63;;;;;;;;;;4985449;28;20422;-59
2021/12/11 09:47:00;;;;;;;2.67;2.35;;;;;;;;;;4988828;28;20367;-59
2021/12/11 09:49:31;;;;;;;3.20;3.00;;;;;;;;;;4991694;28;20047;-59
2021/12/11 09:52:15;;;;;;;5.05;4.55;;;;;;;;;;4993090;28;20042;-59
2021/12/11 09:54:45;;;;;;;5.32;3.63;;;;;;;;;;4993372;28;20073;-59
2021/12/11 09:57:14;;;;;;;4.60;4.15;;;;;;;;;;4986841;28;20053;-59
2021/12/11 09:59:42;;;;;;;7.85;3.15;;;;;;;;;;4991302;28;20498;-59
2021/12/11 10:02:14;;;;;;;4.13;3.75;;;;;;;;;;4992930;28;20043;-59
2021/12/11 10:04:52;;;;;;;7.45;5.07;;;;;;;;;;4993800;28;20108;-61
2021/12/11 10:07:27;;;;;;;6.22;5.07;;;;;;;;;;4993309;28;20046;-59
2021/12/11 10:09:59;;;;;;;5.32;4.18;;;;;;;;;;4995191;28;20050;-59
2021/12/11 10:12:33;;;;;;;4.40;3.90;;;;;;;;;;4992631;28;20042;-59
2021/12/11 10:15:09;;;;;;;4.28;3.60;;;;;;;;;;4996445;28;20046;-59
2021/12/11 10:17:49;;;;;;;4.35;2.95;;;;;;;;;;4996000;28;20548;-58
2021/12/11 10:20:51;;;;;;;3.42;2.90;;;;;;;;;;4996146;28;20058;-59
2021/12/11 10:23:26;;;;;;;3.65;3.35;;;;;;;;;;4954770;28;20401;-59
2021/12/11 10:25:56;;;;;;;6.07;3.92;;;;;;;;;;4995579;28;20504;-61
2021/12/11 10:28:27;;;;;;;3.97;3.30;;;;;;;;;;5010517;28;20053;-60
2021/12/11 10:31:15;;;;;;;3.78;3.42;;;;;;;;;;5015222;28;20053;-59
2021/12/11 10:33:42;;;;;;;3.22;2.92;;;;;;;;;;5015037;28;20465;-60
2021/12/11 10:36:25;;;;;;;2.65;2.45;;;;;;;;;;5015000;28;20152;-60
2021/12/11 10:38:53;;;;;;;2.67;2.47;;;;;;;;;;5012229;28;20045;-59
2021/12/11 10:41:25;;;;;;;2.75;2.53;;;;;;;;;;5012917;28;20038;-59
2021/12/11 10:43:57;;;;;;;5.13;3.00;;;;;;;;;;5014913;28;20092;-59
2021/12/11 10:46:33;;;;;;;10.93;4.45;;;;;;;;;;5014665;28;20049;-60
2021/12/11 10:49:02;;;;;;;2.83;2.47;;;;;;;;;;5014736;28;20046;-59
2021/12/11 10:51:33;;;;;;;4.32;2.35;;;;;;;;;;5014530;28;20038;-59
2021/12/11 10:54:00;;;;;;;4.07;2.47;;;;;;;;;;5014344;28;20046;-59
2021/12/11 10:56:27;;;;;;;3.90;3.20;;;;;;;;;;5015035;28;20440;-58
2021/12/11 10:59:15;;;;;;;4.03;2.42;;;;;;;;;;5014900;28;20053;-59
2021/12/11 11:01:46;;;;;;;4.30;3.22;;;;;;;;;;5014139;28;20052;-59
2021/12/11 11:04:20;;;;;;;2.72;2.53;;;;;;;;;;5014886;28;20045;-60
2021/12/11 11:06:48;;;;;;;3.20;2.87;;;;;;;;;;4983798;28;20073;-60
2021/12/11 11:09:16;;;;;;;7.38;5.85;;;;;;;;;;4995729;28;20035;-60
2021/12/11 11:11:43;;;;;;;3.67;3.00;;;;;;;;;;4995121;28;20045;-60
2021/12/11 11:14:11;;;;;;;3.00;2.70;;;;;;;;;;4995286;28;20444;-60
2021/12/11 11:16:42;;;;;;;3.47;2.80;;;;;;;;;;5004372;28;20073;-60
2021/12/11 11:19:10;;;;;;;5.00;2.75;;;;;;;;;;5014656;28;20073;-59
2021/12/11 11:21:42;;;;;;;5.50;3.55;;;;;;;;;;5014405;28;20444;-60
2021/12/11 11:24:11;;;;;;;3.78;3.30;;;;;;;;;;5014210;28;20045;-59
2021/12/11 11:26:43;;;;;;;5.03;3.15;;;;;;;;;;5005052;28;20046;-59
2021/12/11 11:29:14;;;;;;;3.15;2.85;;;;;;;;;;4985353;28;20097;-59
2021/12/11 11:31:43;;;;;;;4.38;2.72;;;;;;;;;;4991064;28;20416;-59
2021/12/11 11:34:18;;;;;;;4.22;3.53;;;;;;;;;;4989934;28;20081;-60
2021/12/11 11:36:46;;;;;;;4.57;3.70;;;;;;;;;;4989548;28;20145;-60
2021/12/11 11:39:19;;;;;;;4.32;3.40;;;;;;;;;;4991139;28;20065;-60
2021/12/11 11:41:54;;;;;;;4.55;3.88;;;;;;;;;;4989013;28;20477;-60
2021/12/11 11:44:24;;;;;;;5.75;5.07;;;;;;;;;;4990912;28;20046;-59
2021/12/11 11:46:53;;;;;;;5.68;4.60;;;;;;;;;;4988960;28;20047;-59
2021/12/11 11:49:20;;;;;;;5.40;4.57;;;;;;;;;;4990632;28;20125;-60
2021/12/11 11:51:57;;;;;;;8.55;6.20;;;;;;;;;;4988804;28;20053;-62
2021/12/11 11:54:28;;;;;;;5.15;4.30;;;;;;;;;;4990278;28;20046;-60
2021/12/11 11:57:18;;;;;;;5.80;3.78;;;;;;;;;;4991223;28;20053;-60
2021/12/11 11:59:47;;;;;;;3.67;3.05;;;;;;;;;;4989039;28;20050;-60
2021/12/11 12:02:17;;;;;;;13.77;3.78;;;;;;;;;;4987662;28;20428;-60
2021/12/11 12:04:47;;;;;;;5.32;4.20;;;;;;;;;;4985643;28;20046;-60
2021/12/11 12:07:17;;;;;;;4.18;3.47;;;;;;;;;;4987138;28;20509;-59
2021/12/11 12:09:47;;;;;;;8.07;5.50;;;;;;;;;;4981117;28;20038;-57
2021/12/11 12:12:15;;;;;;;5.47;3.80;;;;;;;;;;4980689;28;20628;-54
2021/12/11 12:14:44;;;;;;;4.88;3.97;;;;;;;;;;4977817;28;20060;-58
2021/12/11 12:17:15;;;;;;;4.28;3.50;;;;;;;;;;4973666;28;20057;-58
2021/12/11 12:19:42;;;;;;;5.72;3.55;;;;;;;;;;4977603;28;20050;-59
2021/12/11 12:22:11;;;;;;;4.43;3.65;;;;;;;;;;4976090;28;20051;-59
2021/12/11 12:24:43;;;;;;;3.67;3.38;;;;;;;;;;4980621;28;20097;-58
2021/12/11 12:27:15;;;;;;;3.30;3.00;;;;;;;;;;4980210;28;20142;-60
2021/12/11 12:29:44;;;;;;;3.28;2.97;;;;;;;;;;4989041;28;20129;-60
2021/12/11 12:32:16;;;;;;;3.42;2.80;;;;;;;;;;4988112;28;20066;-58
2021/12/11 12:34:44;;;;;;;4.47;2.35;;;;;;;;;;4990768;28;20046;-58
2021/12/11 12:37:11;;;;;;;3.97;2.75;;;;;;;;;;4988971;28;20495;-60
2021/12/11 12:39:43;;;;;;;4.90;2.60;;;;;;;;;;4990339;28;20046;-59
2021/12/11 12:42:17;;;;;;;4.68;2.65;;;;;;;;;;4981367;28;20050;-57
2021/12/11 12:44:51;;;;;;;3.58;3.17;;;;;;;;;;4988651;28;20047;-58
2021/12/11 12:47:24;;;;;;;2.90;2.58;;;;;;;;;;4986597;28;20054;-59
2021/12/11 12:49:54;;;;;;;5.38;2.95;;;;;;;;;;4984490;28;20046;-58
2021/12/11 12:52:35;;;;;;;2.95;2.65;;;;;;;;;;4986941;28;20137;-58
2021/12/11 12:55:08;;;;;;;5.50;2.53;;;;;;;;;;4985773;28;20049;-56
2021/12/11 12:57:39;;;;;;;4.50;3.97;;;;;;;;;;4984790;28;20054;-59
2021/12/11 13:00:09;;;;;;;3.65;3.03;;;;;;;;;;4983434;28;20046;-58
2021/12/11 13:02:38;;;;;;;2.65;2.45;;;;;;;;;;4985535;28;20105;-58
2021/12/11 13:05:14;;;;;;;3.65;3.35;;;;;;;;;;4988712;28;20057;-57
2021/12/11 13:08:01;;;;;;;6.38;2.80;;;;;;;;;;4988988;28;20066;-57
2021/12/11 13:10:34;;;;;;;2.83;2.63;;;;;;;;;;4991632;28;20042;-59
2021/12/11 13:13:03;;;;;;;2.83;2.60;;;;;;;;;;4989591;28;20049;-59
2021/12/11 13:15:41;;;;;;;6.13;2.88;;;;;;;;;;4987709;28;20042;-59
2021/12/11 13:18:16;;;;;;;2.55;2.35;;;;;;;;;;4993800;28;20045;-59
2021/12/11 13:20:51;;;;;;;3.78;2.88;;;;;;;;;;5000319;28;20524;-57
2021/12/11 13:23:18;;;;;;;2.60;2.40;;;;;;;;;;4989353;28;20051;-58
2021/12/11 13:25:53;;;;;;;3.10;2.80;;;;;;;;;;4989721;28;20093;-58
2021/12/11 13:28:24;;;;;;;2.80;2.50;;;;;;;;;;4993110;28;20065;-56
2021/12/11 13:31:07;;;;;;;3.15;2.85;;;;;;;;;;4993647;28;20046;-56
2021/12/11 13:33:34;;;;;;;3.38;3.00;;;;;;;;;;5001879;28;20042;-57
2021/12/11 13:36:04;;;;;;;6.18;3.25;;;;;;;;;;4994486;28;20038;-57
2021/12/11 13:38:33;;;;;;;5.95;3.72;;;;;;;;;;5001979;28;20524;-56
2021/12/11 13:41:05;;;;;;;7.38;3.25;;;;;;;;;;5001378;28;20456;-57
2021/12/11 13:43:33;;;;;;;4.80;3.30;;;;;;;;;;5004759;28;20045;-55
2021/12/11 13:46:00;;;;;;;4.15;2.75;;;;;;;;;;4992395;28;20039;-54
2021/12/11 13:48:27;;;;;;;4.60;3.08;;;;;;;;;;4996014;28;20073;-56
2021/12/11 13:51:07;;;;;;;3.42;3.13;;;;;;;;;;4995732;28;20180;-58
2021/12/11 13:53:36;;;;;;;4.40;3.50;;;;;;;;;;4997502;28;20065;-54
2021/12/11 13:56:07;;;;;;;4.07;3.67;;;;;;;;;;4988681;28;20505;-56
2021/12/11 13:58:35;;;;;;;3.72;2.90;;;;;;;;;;4995072;28;20073;-56
2021/12/11 14:01:19;;;;;;;3.88;3.35;;;;;;;;;;5001613;28;20481;-58
2021/12/11 14:03:47;;;;;;;;;;;;;;;;;;4993523;28;20043;-58
2021/12/11 14:06:14;;;;;;;3.10;2.80;;;;;;;;;;4996514;28;20068;-54
2021/12/11 14:08:42;;;;;;;3.25;2.67;;;;;;;;;;4995593;28;20501;-57
2021/12/11 14:11:11;;;;;;;2.95;2.60;;;;;;;;;;4996242;28;20049;-57
2021/12/11 14:13:39;;;;;;;2.75;2.45;;;;;;;;;;4995381;28;20048;-59
2021/12/11 14:16:08;;;;;;;4.43;3.58;;;;;;;;;;5003970;28;20581;-62
2021/12/11 14:18:36;;;;;;;8.65;3.28;;;;;;;;;;4992198;28;20034;-58
2021/12/11 14:21:04;;;;;;;3.10;2.80;;;;;;;;;;4988678;28;20050;-57
2021/12/11 14:23:35;;;;;;;4.05;3.03;;;;;;;;;;4997943;28;20046;-56
2021/12/11 14:26:05;;;;;;;3.35;3.05;;;;;;;;;;4993515;28;20057;-58
2021/12/11 14:28:32;;;;;;;5.30;4.30;;;;;;;;;;4994161;28;20038;-57
2021/12/11 14:31:10;;;;;;;3.80;3.20;;;;;;;;;;4995140;28;20494;-56
2021/12/11 14:33:38;;;;;;;4.22;3.83;;;;;;;;;;4995738;28;20042;-57
2021/12/11 14:36:10;;;;;;;4.93;4.43;;;;;;;;;;4997399;28;20050;-56
2021/12/11 14:38:38;;;;;;;8.65;6.70;;;;;;;;;;4994154;28;20050;-58
2021/12/11 14:41:06;;;;;;;6.60;4.65;;;;;;;;;;4992940;28;20093;-54
2021/12/11 14:43:34;;;;;;;4.55;3.78;;;;;;;;;;4994204;28;20108;-56
2021/12/11 14:46:03;;;;;;;4.75;4.07;;;;;;;;;;4993705;28;20040;-55
2021/12/11 14:48:31;;;;;;;8.43;5.93;;;;;;;;;;4994960;28;20049;-56
2021/12/11 14:51:08;;;;;;;6.35;5.43;;;;;;;;;;4997030;28;20046;-54
2021/12/11 14:53:39;;;;;;;4.80;4.30;;;;;;;;;;4995001;28;20042;-54
2021/12/11 14:56:11;;;;;;;3.65;3.35;;;;;;;;;;4994139;28;20046;-54
2021/12/11 14:58:40;;;;;;;3.40;3.10;;;;;;;;;;4996986;28;20041;-55
2021/12/11 15:01:18;;;;;;;3.75;3.08;;;;;;;;;;4994365;28;20046;-56
2021/12/11 15:03:45;;;;;;;4.85;3.28;;;;;;;;;;4993264;28;20440;-58
2021/12/11 15:06:13;;;;;;;3.38;3.03;;;;;;;;;;4994107;28;20529;-57
2021/12/11 15:08:41;;;;;;;5.57;4.00;;;;;;;;;;4994763;28;20477;-57
2021/12/11 15:11:13;;;;;;;7.70;5.10;;;;;;;;;;4994267;28;20047;-56
2021/12/11 15:13:41;;;;;;;3.70;3.40;;;;;;;;;;4996287;28;20046;-59
2021/12/11 15:16:12;;;;;;;4.93;3.05;;;;;;;;;;4994852;28;20046;-59
2021/12/11 15:18:39;;;;;;;3.25;2.95;;;;;;;;;;4994701;28;20039;-59
2021/12/11 15:21:14;;;;;;;5.13;4.63;;;;;;;;;;4995059;28;20042;-59
2021/12/11 15:23:43;;;;;;;5.35;4.80;;;;;;;;;;4994608;28;20046;-52
2021/12/11 15:26:11;;;;;;;6.20;5.38;;;;;;;;;;4994128;28;20516;-56